sensor_id;sensor_type;location;lat;lon;timestamp;temperature;humidity
64654;DHT22;51065;48.884;12.598;2022-12-11T00:00:16;-0.40;99.90
64654;DHT22;51065;48.884;12.598;2022-12-11T00:02:41;-0.50;99.90
64654;DHT22;51065;48.884;12.598;2022-12-11T00:05:07;-0.50;99.90
64654;DHT22;51065;48.884;12.598;2022-12-11T00:07:33;-0.50;99.90
64654;DHT22;51065;48.884;12.598;2022-12-11T00:09:58;-0.50;99.90
64654;DHT22;51065;48.884;12.598;2022-12-11T00:12:24;-0.50;99.90
64654;DHT22;51065;48.884;12.598;2022-12-11T00:14:49;-0.60;99.90
64654;DHT22;51065;48.884;12.598;2022-12-11T00:17:15;-0.60;99.90
64654;DHT22;51065;48.884;12.598;2022-12-11T00:19:40;-0.60;99.90
64654;DHT22;51065;48.884;12.598;2022-12-11T00:22:06;-0.60;99.90
64654;DHT22;51065;48.884;12.598;2022-12-11T00:24:32;-0.60;99.90
64654;DHT22;51065;48.884;12.598;2022-12-11T00:26:58;-0.60;99.90
64654;DHT22;51065;48.884;12.598;2022-12-11T00:29:24;-0.60;99.90
64654;DHT22;51065;48.884;12.598;2022-12-11T00:31:53;-0.70;99.90
64654;DHT22;51065;48.884;12.598;2022-12-11T00:34:18;-0.70;99.90
64654;DHT22;51065;48.884;12.598;2022-12-11T00:36:44;-0.70;99.90
64654;DHT22;51065;48.884;12.598;2022-12-11T00:39:10;-0.70;99.90
64654;DHT22;51065;48.884;12.598;2022-12-11T00:41:35;-0.70;99.90
64654;DHT22;51065;48.884;12.598;2022-12-11T00:44:01;-0.70;99.90
64654;DHT22;51065;48.884;12.598;2022-12-11T00:46:26;-0.70;99.90
64654;DHT22;51065;48.884;12.598;2022-12-11T00:48:52;-0.70;99.90
64654;DHT22;51065;48.884;12.598;2022-12-11T00:51:18;-0.70;99.90
64654;DHT22;51065;48.884;12.598;2022-12-11T00:53:44;-0.70;99.90
64654;DHT22;51065;48.884;12.598;2022-12-11T00:56:15;-0.70;99.90
64654;DHT22;51065;48.884;12.598;2022-12-11T00:58:40;-0.80;99.90
64654;DHT22;51065;48.884;12.598;2022-12-11T01:01:08;-0.80;99.90
64654;DHT22;51065;48.884;12.598;2022-12-11T01:03:34;-0.80;99.90
64654;DHT22;51065;48.884;12.598;2022-12-11T01:05:59;-0.80;99.90
64654;DHT22;51065;48.884;12.598;2022-12-11T01:08:25;-0.80;99.90
64654;DHT22;51065;48.884;12.598;2022-12-11T01:10:51;-0.80;99.90
64654;DHT22;51065;48.884;12.598;2022-12-11T01:13:16;-0.80;99.90
64654;DHT22;51065;48.884;12.598;2022-12-11T01:15:43;-0.80;99.90
64654;DHT22;51065;48.884;12.598;2022-12-11T01:18:12;-0.80;99.90
64654;DHT22;51065;48.884;12.598;2022-12-11T01:20:41;-0.80;99.90
64654;DHT22;51065;48.884;12.598;2022-12-11T01:23:08;-0.90;99.90
64654;DHT22;51065;48.884;12.598;2022-12-11T01:25:35;-1.00;99.90
64654;DHT22;51065;48.884;12.598;2022-12-11T01:28:02;-1.00;99.90
64654;DHT22;51065;48.884;12.598;2022-12-11T01:30:28;-1.00;99.90
64654;DHT22;51065;48.884;12.598;2022-12-11T01:32:54;-1.00;99.90
64654;DHT22;51065;48.884;12.598;2022-12-11T01:35:19;-1.00;99.90
64654;DHT22;51065;48.884;12.598;2022-12-11T01:37:45;-1.00;99.90
64654;DHT22;51065;48.884;12.598;2022-12-11T01:40:13;-1.00;99.90
64654;DHT22;51065;48.884;12.598;2022-12-11T01:42:39;-1.00;99.90
64654;DHT22;51065;48.884;12.598;2022-12-11T01:48:06;-1.00;99.90
64654;DHT22;51065;48.884;12.598;2022-12-11T01:50:40;-1.00;99.90
64654;DHT22;51065;48.884;12.598;2022-12-11T01:53:11;-1.00;99.90
64654;DHT22;51065;48.884;12.598;2022-12-11T01:55:38;-1.00;99.90
64654;DHT22;51065;48.884;12.598;2022-12-11T01:58:04;-1.00;99.90
64654;DHT22;51065;48.884;12.598;2022-12-11T02:00:30;-1.00;99.90
64654;DHT22;51065;48.884;12.598;2022-12-11T02:02:56;-1.00;99.90
64654;DHT22;51065;48.884;12.598;2022-12-11T02:05:21;-1.00;99.90
64654;DHT22;51065;48.884;12.598;2022-12-11T02:07:50;-1.10;99.90
64654;DHT22;51065;48.884;12.598;2022-12-11T02:10:17;-1.10;99.90
64654;DHT22;51065;48.884;12.598;2022-12-11T02:13:03;-1.10;99.90
64654;DHT22;51065;48.884;12.598;2022-12-11T02:18:30;-1.10;99.90
64654;DHT22;51065;48.884;12.598;2022-12-11T02:21:07;-1.20;99.90
64654;DHT22;51065;48.884;12.598;2022-12-11T02:32:26;-1.20;99.90
64654;DHT22;51065;48.884;12.598;2022-12-11T02:35:04;-1.20;99.90
64654;DHT22;51065;48.884;12.598;2022-12-11T02:37:32;-1.30;99.90
64654;DHT22;51065;48.884;12.598;2022-12-11T02:40:02;-1.20;99.90
64654;DHT22;51065;48.884;12.598;2022-12-11T02:42:30;-1.20;99.90
64654;DHT22;51065;48.884;12.598;2022-12-11T02:44:58;-1.20;99.90
64654;DHT22;51065;48.884;12.598;2022-12-11T02:47:26;-1.20;99.90
64654;DHT22;51065;48.884;12.598;2022-12-11T02:49:55;-1.20;99.90
64654;DHT22;51065;48.884;12.598;2022-12-11T02:52:23;-1.20;99.90
64654;DHT22;51065;48.884;12.598;2022-12-11T02:54:51;-1.20;99.90
64654;DHT22;51065;48.884;12.598;2022-12-11T02:57:32;-1.20;99.90
64654;DHT22;51065;48.884;12.598;2022-12-11T02:59:59;-1.20;99.90
64654;DHT22;51065;48.884;12.598;2022-12-11T03:02:25;-1.20;99.90
64654;DHT22;51065;48.884;12.598;2022-12-11T03:04:50;-1.20;99.90
64654;DHT22;51065;48.884;12.598;2022-12-11T03:07:26;-1.20;99.90
64654;DHT22;51065;48.884;12.598;2022-12-11T03:09:52;-1.20;99.90
64654;DHT22;51065;48.884;12.598;2022-12-11T03:12:22;-1.20;99.90
64654;DHT22;51065;48.884;12.598;2022-12-11T03:14:49;-1.20;99.90
64654;DHT22;51065;48.884;12.598;2022-12-11T03:17:23;-1.20;99.90
64654;DHT22;51065;48.884;12.598;2022-12-11T03:22:33;-1.20;99.90
64654;DHT22;51065;48.884;12.598;2022-12-11T03:25:09;-1.20;99.90
64654;DHT22;51065;48.884;12.598;2022-12-11T03:30:31;-1.30;99.90
64654;DHT22;51065;48.884;12.598;2022-12-11T03:33:02;-1.40;99.90
64654;DHT22;51065;48.884;12.598;2022-12-11T03:35:50;-1.50;99.90
64654;DHT22;51065;48.884;12.598;2022-12-11T03:38:27;-1.50;99.90
64654;DHT22;51065;48.884;12.598;2022-12-11T03:40:55;-1.40;99.90
64654;DHT22;51065;48.884;12.598;2022-12-11T03:43:23;-1.50;99.90
64654;DHT22;51065;48.884;12.598;2022-12-11T03:45:51;-1.50;99.90
64654;DHT22;51065;48.884;12.598;2022-12-11T03:48:18;-1.50;99.90
64654;DHT22;51065;48.884;12.598;2022-12-11T03:50:46;-1.50;99.90
64654;DHT22;51065;48.884;12.598;2022-12-11T03:53:13;-1.50;99.90
64654;DHT22;51065;48.884;12.598;2022-12-11T03:55:40;-1.50;99.90
64654;DHT22;51065;48.884;12.598;2022-12-11T03:58:06;-1.60;99.90
64654;DHT22;51065;48.884;12.598;2022-12-11T04:00:32;-1.60;99.90
64654;DHT22;51065;48.884;12.598;2022-12-11T04:02:58;-1.70;99.90
64654;DHT22;51065;48.884;12.598;2022-12-11T04:05:51;-1.70;99.90
64654;DHT22;51065;48.884;12.598;2022-12-11T04:08:18;-1.70;99.90
64654;DHT22;51065;48.884;12.598;2022-12-11T04:10:45;-1.90;99.90
64654;DHT22;51065;48.884;12.598;2022-12-11T04:13:11;-1.90;99.90
64654;DHT22;51065;48.884;12.598;2022-12-11T04:15:38;-1.90;99.90
64654;DHT22;51065;48.884;12.598;2022-12-11T04:18:05;-2.00;99.90
64654;DHT22;51065;48.884;12.598;2022-12-11T04:20:59;-2.00;99.90
64654;DHT22;51065;48.884;12.598;2022-12-11T04:23:44;-2.10;99.90
64654;DHT22;51065;48.884;12.598;2022-12-11T04:26:38;-2.10;99.90
64654;DHT22;51065;48.884;12.598;2022-12-11T04:29:04;-2.10;99.90
64654;DHT22;51065;48.884;12.598;2022-12-11T04:31:30;-2.10;99.90
64654;DHT22;51065;48.884;12.598;2022-12-11T04:33:55;-2.20;99.90
64654;DHT22;51065;48.884;12.598;2022-12-11T04:36:21;-2.20;99.90
64654;DHT22;51065;48.884;12.598;2022-12-11T04:38:46;-2.30;99.90
64654;DHT22;51065;48.884;12.598;2022-12-11T04:41:13;-2.40;99.90
64654;DHT22;51065;48.884;12.598;2022-12-11T04:43:39;-2.50;99.90
64654;DHT22;51065;48.884;12.598;2022-12-11T04:46:14;-2.60;99.90
64654;DHT22;51065;48.884;12.598;2022-12-11T04:48:40;-2.60;99.90
64654;DHT22;51065;48.884;12.598;2022-12-11T04:51:06;-2.70;99.90
64654;DHT22;51065;48.884;12.598;2022-12-11T04:53:33;-2.80;99.90
64654;DHT22;51065;48.884;12.598;2022-12-11T04:55:58;-2.80;99.90
64654;DHT22;51065;48.884;12.598;2022-12-11T04:58:24;-2.90;99.90
64654;DHT22;51065;48.884;12.598;2022-12-11T05:00:50;-3.00;99.90
64654;DHT22;51065;48.884;12.598;2022-12-11T05:03:16;-3.00;99.90
64654;DHT22;51065;48.884;12.598;2022-12-11T05:05:52;-2.90;99.90
64654;DHT22;51065;48.884;12.598;2022-12-11T05:08:19;-2.70;99.90
64654;DHT22;51065;48.884;12.598;2022-12-11T05:10:57;-2.60;99.90
64654;DHT22;51065;48.884;12.598;2022-12-11T05:13:22;-2.40;99.90
64654;DHT22;51065;48.884;12.598;2022-12-11T05:15:48;-2.40;99.90
64654;DHT22;51065;48.884;12.598;2022-12-11T05:18:14;-2.50;99.90
64654;DHT22;51065;48.884;12.598;2022-12-11T05:20:39;-2.40;99.90
64654;DHT22;51065;48.884;12.598;2022-12-11T05:23:05;-2.40;99.90
64654;DHT22;51065;48.884;12.598;2022-12-11T05:25:31;-2.30;99.90
64654;DHT22;51065;48.884;12.598;2022-12-11T05:27:56;-2.40;99.90
64654;DHT22;51065;48.884;12.598;2022-12-11T05:30:22;-2.40;99.90
64654;DHT22;51065;48.884;12.598;2022-12-11T05:32:47;-2.50;99.90
64654;DHT22;51065;48.884;12.598;2022-12-11T05:35:13;-2.60;99.90
64654;DHT22;51065;48.884;12.598;2022-12-11T05:37:39;-2.70;99.90
64654;DHT22;51065;48.884;12.598;2022-12-11T05:40:05;-2.70;99.90
64654;DHT22;51065;48.884;12.598;2022-12-11T05:42:32;-2.70;99.90
64654;DHT22;51065;48.884;12.598;2022-12-11T05:44:58;-2.70;99.90
64654;DHT22;51065;48.884;12.598;2022-12-11T05:47:23;-2.70;99.90
64654;DHT22;51065;48.884;12.598;2022-12-11T05:49:50;-2.80;99.90
64654;DHT22;51065;48.884;12.598;2022-12-11T05:52:16;-2.70;99.90
64654;DHT22;51065;48.884;12.598;2022-12-11T05:54:41;-2.70;99.90
64654;DHT22;51065;48.884;12.598;2022-12-11T05:57:07;-2.70;99.90
64654;DHT22;51065;48.884;12.598;2022-12-11T05:59:33;-2.70;99.90
64654;DHT22;51065;48.884;12.598;2022-12-11T06:01:58;-2.80;99.90
64654;DHT22;51065;48.884;12.598;2022-12-11T06:04:24;-2.70;99.90
64654;DHT22;51065;48.884;12.598;2022-12-11T06:06:52;-2.80;99.90
64654;DHT22;51065;48.884;12.598;2022-12-11T06:09:18;-2.80;99.90
64654;DHT22;51065;48.884;12.598;2022-12-11T06:11:43;-2.80;99.90
64654;DHT22;51065;48.884;12.598;2022-12-11T06:14:10;-2.80;99.90
64654;DHT22;51065;48.884;12.598;2022-12-11T06:16:35;-2.90;99.90
64654;DHT22;51065;48.884;12.598;2022-12-11T06:19:01;-3.00;99.90
64654;DHT22;51065;48.884;12.598;2022-12-11T06:21:31;-3.00;99.90
64654;DHT22;51065;48.884;12.598;2022-12-11T06:23:59;-3.00;99.90
64654;DHT22;51065;48.884;12.598;2022-12-11T06:26:26;-3.00;99.90
64654;DHT22;51065;48.884;12.598;2022-12-11T06:28:52;-3.10;99.90
64654;DHT22;51065;48.884;12.598;2022-12-11T06:31:18;-3.10;99.90
64654;DHT22;51065;48.884;12.598;2022-12-11T06:33:44;-3.00;99.90
64654;DHT22;51065;48.884;12.598;2022-12-11T06:36:12;-2.90;99.90
64654;DHT22;51065;48.884;12.598;2022-12-11T06:38:38;-2.80;99.90
64654;DHT22;51065;48.884;12.598;2022-12-11T06:41:05;-2.60;99.90
64654;DHT22;51065;48.884;12.598;2022-12-11T06:43:32;-2.50;99.90
64654;DHT22;51065;48.884;12.598;2022-12-11T06:45:58;-2.40;99.90
64654;DHT22;51065;48.884;12.598;2022-12-11T06:48:24;-2.30;99.90
64654;DHT22;51065;48.884;12.598;2022-12-11T06:50:50;-2.20;99.90
64654;DHT22;51065;48.884;12.598;2022-12-11T06:53:16;-2.20;99.90
64654;DHT22;51065;48.884;12.598;2022-12-11T06:55:42;-2.20;99.90
64654;DHT22;51065;48.884;12.598;2022-12-11T06:58:08;-2.10;99.90
64654;DHT22;51065;48.884;12.598;2022-12-11T07:00:35;-2.00;99.90
64654;DHT22;51065;48.884;12.598;2022-12-11T07:03:01;-2.00;99.90
64654;DHT22;51065;48.884;12.598;2022-12-11T07:05:26;-2.00;99.90
64654;DHT22;51065;48.884;12.598;2022-12-11T07:07:53;-2.00;99.90
64654;DHT22;51065;48.884;12.598;2022-12-11T07:10:19;-1.90;99.90
64654;DHT22;51065;48.884;12.598;2022-12-11T07:12:45;-1.90;99.90
64654;DHT22;51065;48.884;12.598;2022-12-11T07:15:10;-1.90;99.90
64654;DHT22;51065;48.884;12.598;2022-12-11T07:17:36;-1.90;99.90
64654;DHT22;51065;48.884;12.598;2022-12-11T07:20:02;-1.90;99.90
64654;DHT22;51065;48.884;12.598;2022-12-11T07:22:28;-1.90;99.90
64654;DHT22;51065;48.884;12.598;2022-12-11T07:24:54;-1.80;99.90
64654;DHT22;51065;48.884;12.598;2022-12-11T07:27:19;-1.80;99.90
64654;DHT22;51065;48.884;12.598;2022-12-11T07:29:45;-1.80;99.90
64654;DHT22;51065;48.884;12.598;2022-12-11T07:32:10;-1.80;99.90
64654;DHT22;51065;48.884;12.598;2022-12-11T07:34:36;-1.70;99.90
64654;DHT22;51065;48.884;12.598;2022-12-11T07:37:02;-1.70;99.90
64654;DHT22;51065;48.884;12.598;2022-12-11T07:39:28;-1.70;99.90
64654;DHT22;51065;48.884;12.598;2022-12-11T07:41:53;-1.70;99.90
64654;DHT22;51065;48.884;12.598;2022-12-11T07:44:19;-1.60;99.90
64654;DHT22;51065;48.884;12.598;2022-12-11T07:46:45;-1.60;99.90
64654;DHT22;51065;48.884;12.598;2022-12-11T07:49:11;-1.50;99.90
64654;DHT22;51065;48.884;12.598;2022-12-11T07:51:37;-1.40;99.90
64654;DHT22;51065;48.884;12.598;2022-12-11T07:54:09;-1.30;99.90
64654;DHT22;51065;48.884;12.598;2022-12-11T07:56:36;-1.30;99.90
64654;DHT22;51065;48.884;12.598;2022-12-11T07:59:03;-1.20;99.90
64654;DHT22;51065;48.884;12.598;2022-12-11T08:01:30;-1.20;99.90
64654;DHT22;51065;48.884;12.598;2022-12-11T08:03:57;-1.20;99.90
64654;DHT22;51065;48.884;12.598;2022-12-11T08:06:28;-1.20;99.90
64654;DHT22;51065;48.884;12.598;2022-12-11T08:08:55;-1.20;99.90
64654;DHT22;51065;48.884;12.598;2022-12-11T08:11:21;-1.20;99.90
64654;DHT22;51065;48.884;12.598;2022-12-11T08:13:47;-1.10;99.90
64654;DHT22;51065;48.884;12.598;2022-12-11T08:16:14;-1.10;99.90
64654;DHT22;51065;48.884;12.598;2022-12-11T08:18:41;-1.10;99.90
64654;DHT22;51065;48.884;12.598;2022-12-11T08:21:15;-1.00;99.90
64654;DHT22;51065;48.884;12.598;2022-12-11T08:23:41;-0.90;99.90
64654;DHT22;51065;48.884;12.598;2022-12-11T08:26:11;-0.80;99.90
64654;DHT22;51065;48.884;12.598;2022-12-11T08:28:37;-0.30;99.90
64654;DHT22;51065;48.884;12.598;2022-12-11T08:31:05;0.00;99.90
64654;DHT22;51065;48.884;12.598;2022-12-11T08:33:31;0.00;99.90
64654;DHT22;51065;48.884;12.598;2022-12-11T08:35:57;0.00;99.90
64654;DHT22;51065;48.884;12.598;2022-12-11T08:38:23;-0.10;99.90
64654;DHT22;51065;48.884;12.598;2022-12-11T08:40:48;-0.10;99.90
64654;DHT22;51065;48.884;12.598;2022-12-11T08:43:14;-0.30;99.90
64654;DHT22;51065;48.884;12.598;2022-12-11T08:45:39;-0.40;99.90
64654;DHT22;51065;48.884;12.598;2022-12-11T08:48:05;-0.50;99.90
64654;DHT22;51065;48.884;12.598;2022-12-11T08:50:31;-0.60;99.90
64654;DHT22;51065;48.884;12.598;2022-12-11T08:52:57;-0.70;99.90
64654;DHT22;51065;48.884;12.598;2022-12-11T08:55:22;-0.70;99.90
64654;DHT22;51065;48.884;12.598;2022-12-11T08:57:48;-0.50;99.90
64654;DHT22;51065;48.884;12.598;2022-12-11T09:00:14;-0.20;99.90
64654;DHT22;51065;48.884;12.598;2022-12-11T09:02:40;0.10;99.90
64654;DHT22;51065;48.884;12.598;2022-12-11T09:05:06;0.40;99.90
64654;DHT22;51065;48.884;12.598;2022-12-11T09:07:35;0.60;99.90
64654;DHT22;51065;48.884;12.598;2022-12-11T09:10:01;0.60;99.90
64654;DHT22;51065;48.884;12.598;2022-12-11T09:12:27;0.80;99.90
64654;DHT22;51065;48.884;12.598;2022-12-11T09:14:53;0.90;99.90
64654;DHT22;51065;48.884;12.598;2022-12-11T09:17:19;0.80;99.90
64654;DHT22;51065;48.884;12.598;2022-12-11T09:19:44;1.20;99.90
64654;DHT22;51065;48.884;12.598;2022-12-11T09:22:10;1.50;99.90
64654;DHT22;51065;48.884;12.598;2022-12-11T09:24:37;2.00;99.90
64654;DHT22;51065;48.884;12.598;2022-12-11T09:27:04;2.30;99.90
64654;DHT22;51065;48.884;12.598;2022-12-11T09:29:29;2.40;99.90
64654;DHT22;51065;48.884;12.598;2022-12-11T09:31:55;2.40;99.90
64654;DHT22;51065;48.884;12.598;2022-12-11T09:34:21;2.30;99.90
64654;DHT22;51065;48.884;12.598;2022-12-11T09:36:47;1.80;99.90
64654;DHT22;51065;48.884;12.598;2022-12-11T09:39:14;1.20;99.90
64654;DHT22;51065;48.884;12.598;2022-12-11T09:41:54;0.70;99.90
64654;DHT22;51065;48.884;12.598;2022-12-11T09:46:56;0.30;99.90
64654;DHT22;51065;48.884;12.598;2022-12-11T09:49:38;0.00;99.90
64654;DHT22;51065;48.884;12.598;2022-12-11T09:52:20;-0.20;99.90
64654;DHT22;51065;48.884;12.598;2022-12-11T09:54:50;-0.30;99.90
64654;DHT22;51065;48.884;12.598;2022-12-11T10:00:28;-0.30;99.90
64654;DHT22;51065;48.884;12.598;2022-12-11T10:06:10;-0.40;99.90
64654;DHT22;51065;48.884;12.598;2022-12-11T10:08:52;-0.40;99.90
64654;DHT22;51065;48.884;12.598;2022-12-11T10:11:36;-0.40;99.90
64654;DHT22;51065;48.884;12.598;2022-12-11T10:17:30;-0.30;99.90
64654;DHT22;51065;48.884;12.598;2022-12-11T10:23:18;-0.30;99.90
64654;DHT22;51065;48.884;12.598;2022-12-11T10:25:53;-0.20;99.90
64654;DHT22;51065;48.884;12.598;2022-12-11T10:28:21;-0.20;99.90
64654;DHT22;51065;48.884;12.598;2022-12-11T10:30:51;0.00;99.90
64654;DHT22;51065;48.884;12.598;2022-12-11T10:33:26;0.00;99.90
64654;DHT22;51065;48.884;12.598;2022-12-11T10:35:56;0.00;99.90
64654;DHT22;51065;48.884;12.598;2022-12-11T10:38:29;0.10;99.90
64654;DHT22;51065;48.884;12.598;2022-12-11T10:41:04;0.10;99.90
64654;DHT22;51065;48.884;12.598;2022-12-11T10:45:59;0.00;99.90
64654;DHT22;51065;48.884;12.598;2022-12-11T10:48:24;0.00;99.90
64654;DHT22;51065;48.884;12.598;2022-12-11T10:51:03;0.10;99.90
64654;DHT22;51065;48.884;12.598;2022-12-11T10:53:30;0.00;99.90
64654;DHT22;51065;48.884;12.598;2022-12-11T10:55:58;-0.30;99.90
64654;DHT22;51065;48.884;12.598;2022-12-11T10:58:27;-0.40;99.90
64654;DHT22;51065;48.884;12.598;2022-12-11T11:01:14;-0.50;99.90
64654;DHT22;51065;48.884;12.598;2022-12-11T11:03:58;-0.40;99.90
64654;DHT22;51065;48.884;12.598;2022-12-11T11:06:26;-0.40;99.90
64654;DHT22;51065;48.884;12.598;2022-12-11T11:08:56;-0.40;99.90
64654;DHT22;51065;48.884;12.598;2022-12-11T11:16:31;-0.30;99.90
64654;DHT22;51065;48.884;12.598;2022-12-11T11:18:59;-0.30;99.90
64654;DHT22;51065;48.884;12.598;2022-12-11T11:21:25;-0.20;99.90
64654;DHT22;51065;48.884;12.598;2022-12-11T11:23:52;-0.10;99.90
64654;DHT22;51065;48.884;12.598;2022-12-11T11:26:19;-0.20;99.90
64654;DHT22;51065;48.884;12.598;2022-12-11T11:28:54;-0.30;99.90
64654;DHT22;51065;48.884;12.598;2022-12-11T11:31:43;-0.30;99.90
64654;DHT22;51065;48.884;12.598;2022-12-11T11:34:14;-0.30;99.90
64654;DHT22;51065;48.884;12.598;2022-12-11T11:36:43;-0.20;99.90
64654;DHT22;51065;48.884;12.598;2022-12-11T11:39:27;-0.10;99.90
64654;DHT22;51065;48.884;12.598;2022-12-11T11:44:41;0.30;99.90
64654;DHT22;51065;48.884;12.598;2022-12-11T11:47:19;0.30;99.90
64654;DHT22;51065;48.884;12.598;2022-12-11T11:52:36;0.10;99.90
64654;DHT22;51065;48.884;12.598;2022-12-11T11:58:05;0.30;99.90
64654;DHT22;51065;48.884;12.598;2022-12-11T12:00:32;0.40;99.90
64654;DHT22;51065;48.884;12.598;2022-12-11T12:03:14;0.90;99.90
64654;DHT22;51065;48.884;12.598;2022-12-11T12:05:57;1.30;99.90
64654;DHT22;51065;48.884;12.598;2022-12-11T12:14:01;0.80;99.90
64654;DHT22;51065;48.884;12.598;2022-12-11T12:16:53;0.70;99.90
64654;DHT22;51065;48.884;12.598;2022-12-11T12:21:56;0.70;99.90
64654;DHT22;51065;48.884;12.598;2022-12-11T12:27:19;0.70;99.90
64654;DHT22;51065;48.884;12.598;2022-12-11T12:30:07;0.60;99.90
64654;DHT22;51065;48.884;12.598;2022-12-11T12:32:59;0.50;99.90
64654;DHT22;51065;48.884;12.598;2022-12-11T12:35:42;0.50;99.90
64654;DHT22;51065;48.884;12.598;2022-12-11T12:41:41;0.40;99.90
64654;DHT22;51065;48.884;12.598;2022-12-11T12:43:51;0.50;99.90
64654;DHT22;51065;48.884;12.598;2022-12-11T12:46:32;0.40;99.90
64654;DHT22;51065;48.884;12.598;2022-12-11T12:49:02;0.30;99.90
64654;DHT22;51065;48.884;12.598;2022-12-11T12:51:29;0.20;99.90
64654;DHT22;51065;48.884;12.598;2022-12-11T12:53:59;0.20;99.90
64654;DHT22;51065;48.884;12.598;2022-12-11T12:56:27;0.20;99.90
64654;DHT22;51065;48.884;12.598;2022-12-11T12:58:53;0.20;99.90
64654;DHT22;51065;48.884;12.598;2022-12-11T13:01:21;0.20;99.90
64654;DHT22;51065;48.884;12.598;2022-12-11T13:06:45;0.20;99.90
64654;DHT22;51065;48.884;12.598;2022-12-11T13:09:17;0.30;99.90
64654;DHT22;51065;48.884;12.598;2022-12-11T13:11:45;0.30;99.90
64654;DHT22;51065;48.884;12.598;2022-12-11T13:16:44;0.10;99.90
64654;DHT22;51065;48.884;12.598;2022-12-11T13:22:01;-0.10;99.90
64654;DHT22;51065;48.884;12.598;2022-12-11T13:24:30;-0.20;99.90
64654;DHT22;51065;48.884;12.598;2022-12-11T13:27:08;-0.30;99.90
64654;DHT22;51065;48.884;12.598;2022-12-11T13:29:41;-0.30;99.90
64654;DHT22;51065;48.884;12.598;2022-12-11T13:34:41;-0.40;99.90
64654;DHT22;51065;48.884;12.598;2022-12-11T13:37:28;-0.50;99.90
64654;DHT22;51065;48.884;12.598;2022-12-11T13:39:56;-0.50;99.90
64654;DHT22;51065;48.884;12.598;2022-12-11T13:42:34;-0.50;99.90
64654;DHT22;51065;48.884;12.598;2022-12-11T13:45:02;-0.40;99.90
64654;DHT22;51065;48.884;12.598;2022-12-11T13:47:30;-0.40;99.90
64654;DHT22;51065;48.884;12.598;2022-12-11T13:50:12;-0.20;99.90
64654;DHT22;51065;48.884;12.598;2022-12-11T13:52:38;-0.10;99.90
64654;DHT22;51065;48.884;12.598;2022-12-11T13:55:20;-0.20;99.90
64654;DHT22;51065;48.884;12.598;2022-12-11T13:57:47;-0.30;99.90
64654;DHT22;51065;48.884;12.598;2022-12-11T14:00:26;-0.30;99.90
64654;DHT22;51065;48.884;12.598;2022-12-11T14:02:55;-0.30;99.90
64654;DHT22;51065;48.884;12.598;2022-12-11T14:05:22;-0.40;99.90
64654;DHT22;51065;48.884;12.598;2022-12-11T14:07:50;-0.50;99.90
64654;DHT22;51065;48.884;12.598;2022-12-11T14:10:20;-0.60;99.90
64654;DHT22;51065;48.884;12.598;2022-12-11T14:15:16;-0.70;99.90
64654;DHT22;51065;48.884;12.598;2022-12-11T14:17:42;-0.80;99.90
64654;DHT22;51065;48.884;12.598;2022-12-11T14:20:34;-0.90;99.90
64654;DHT22;51065;48.884;12.598;2022-12-11T14:23:14;-1.00;99.90
64654;DHT22;51065;48.884;12.598;2022-12-11T14:25:41;-1.10;99.90
64654;DHT22;51065;48.884;12.598;2022-12-11T14:28:16;-1.10;99.90
64654;DHT22;51065;48.884;12.598;2022-12-11T14:30:46;-1.10;99.90
64654;DHT22;51065;48.884;12.598;2022-12-11T14:33:12;-1.10;99.90
64654;DHT22;51065;48.884;12.598;2022-12-11T14:35:40;-1.20;99.90
64654;DHT22;51065;48.884;12.598;2022-12-11T14:38:15;-1.20;99.90
64654;DHT22;51065;48.884;12.598;2022-12-11T14:40:44;-1.20;99.90
64654;DHT22;51065;48.884;12.598;2022-12-11T14:43:18;-1.20;99.90
64654;DHT22;51065;48.884;12.598;2022-12-11T14:45:49;-1.20;99.90
64654;DHT22;51065;48.884;12.598;2022-12-11T14:48:34;-1.30;99.90
64654;DHT22;51065;48.884;12.598;2022-12-11T14:51:04;-1.40;99.90
64654;DHT22;51065;48.884;12.598;2022-12-11T14:53:41;-1.40;99.90
64654;DHT22;51065;48.884;12.598;2022-12-11T14:56:16;-1.50;99.90
64654;DHT22;51065;48.884;12.598;2022-12-11T14:58:50;-1.60;99.90
64654;DHT22;51065;48.884;12.598;2022-12-11T15:01:22;-1.70;99.90
64654;DHT22;51065;48.884;12.598;2022-12-11T15:03:48;-1.60;99.90
64654;DHT22;51065;48.884;12.598;2022-12-11T15:06:33;-1.60;99.90
64654;DHT22;51065;48.884;12.598;2022-12-11T15:12:06;-1.50;99.90
64654;DHT22;51065;48.884;12.598;2022-12-11T15:14:33;-1.60;99.90
64654;DHT22;51065;48.884;12.598;2022-12-11T15:16:59;-1.50;99.90
64654;DHT22;51065;48.884;12.598;2022-12-11T15:19:29;-1.50;99.90
64654;DHT22;51065;48.884;12.598;2022-12-11T15:22:05;-1.50;99.90
64654;DHT22;51065;48.884;12.598;2022-12-11T15:24:42;-1.50;99.90
64654;DHT22;51065;48.884;12.598;2022-12-11T15:29:55;-1.60;99.90
64654;DHT22;51065;48.884;12.598;2022-12-11T15:32:21;-1.60;99.90
64654;DHT22;51065;48.884;12.598;2022-12-11T15:34:56;-1.60;99.90
64654;DHT22;51065;48.884;12.598;2022-12-11T15:37:29;-1.60;99.90
64654;DHT22;51065;48.884;12.598;2022-12-11T15:39:57;-1.60;99.90
64654;DHT22;51065;48.884;12.598;2022-12-11T15:42:33;-1.60;99.90
64654;DHT22;51065;48.884;12.598;2022-12-11T15:45:00;-1.60;99.90
64654;DHT22;51065;48.884;12.598;2022-12-11T15:47:27;-1.60;99.90
64654;DHT22;51065;48.884;12.598;2022-12-11T15:49:56;-1.60;99.90
64654;DHT22;51065;48.884;12.598;2022-12-11T15:52:22;-1.70;99.90
64654;DHT22;51065;48.884;12.598;2022-12-11T15:54:48;-1.70;99.90
64654;DHT22;51065;48.884;12.598;2022-12-11T15:57:16;-1.60;99.90
64654;DHT22;51065;48.884;12.598;2022-12-11T15:59:43;-1.60;99.90
64654;DHT22;51065;48.884;12.598;2022-12-11T16:02:13;-1.60;99.90
64654;DHT22;51065;48.884;12.598;2022-12-11T16:04:39;-1.70;99.90
64654;DHT22;51065;48.884;12.598;2022-12-11T16:07:14;-1.60;99.90
64654;DHT22;51065;48.884;12.598;2022-12-11T16:09:40;-1.70;99.90
64654;DHT22;51065;48.884;12.598;2022-12-11T16:12:06;-1.70;99.90
64654;DHT22;51065;48.884;12.598;2022-12-11T16:14:32;-1.80;99.90
64654;DHT22;51065;48.884;12.598;2022-12-11T16:16:57;-1.90;99.90
64654;DHT22;51065;48.884;12.598;2022-12-11T16:19:23;-2.00;99.90
64654;DHT22;51065;48.884;12.598;2022-12-11T16:21:48;-2.10;99.90
64654;DHT22;51065;48.884;12.598;2022-12-11T16:24:14;-2.20;99.90
64654;DHT22;51065;48.884;12.598;2022-12-11T16:26:39;-2.20;99.90
64654;DHT22;51065;48.884;12.598;2022-12-11T16:29:05;-2.30;99.90
64654;DHT22;51065;48.884;12.598;2022-12-11T16:31:31;-2.30;99.90
64654;DHT22;51065;48.884;12.598;2022-12-11T16:33:56;-2.40;99.90
64654;DHT22;51065;48.884;12.598;2022-12-11T16:36:22;-2.40;99.90
64654;DHT22;51065;48.884;12.598;2022-12-11T16:38:48;-2.50;99.90
64654;DHT22;51065;48.884;12.598;2022-12-11T16:41:14;-2.60;99.90
64654;DHT22;51065;48.884;12.598;2022-12-11T16:43:39;-2.80;99.90
64654;DHT22;51065;48.884;12.598;2022-12-11T16:46:05;-3.00;99.90
64654;DHT22;51065;48.884;12.598;2022-12-11T16:48:31;-3.00;99.90
64654;DHT22;51065;48.884;12.598;2022-12-11T16:50:57;-2.90;99.90
64654;DHT22;51065;48.884;12.598;2022-12-11T16:53:23;-2.80;99.90